Time;durP1;ratioP1;P1;durP2;ratioP2;P2;SDS_P1;SDS_P2;PMS_P1;PMS_P2;Temp;Humidity;BMP_temperature;BMP_pressure;BME280_temperature;BME280_humidity;BME280_pressure;Samples;Min_cycle;Max_cycle;Signal;HPM_P1;HPM_P2
2021/10/31 00:02:08;;;;;;;;;;;358.40;1664.00;;;;;;5098727;28;19904;-67
2021/10/31 00:04:34;;;;;;;;;;;358.40;1664.00;;;;;;5094214;28;19911;-67
2021/10/31 00:06:59;;;;;;;;;;;358.40;1664.00;;;;;;5109924;28;20432;-64
2021/10/31 00:09:25;;;;;;;;;;;358.40;1664.00;;;;;;5095865;28;20002;-65
2021/10/31 00:11:51;;;;;;;;;;;358.40;1664.00;;;;;;5113636;28;20253;-66
2021/10/31 00:14:16;;;;;;;;;;;358.40;1664.00;;;;;;5110853;28;19944;-64
2021/10/31 00:16:42;;;;;;;;;;;358.40;1664.00;;;;;;5083907;28;19908;-67
2021/10/31 00:19:07;;;;;;;;;;;333.70;1664.00;;;;;;5095126;28;19907;-67
2021/10/31 00:21:33;;;;;;;;;;;333.70;1664.00;;;;;;5099308;28;20372;-64
2021/10/31 00:23:59;;;;;;;;;;;333.70;1664.00;;;;;;5095897;28;19908;-66
2021/10/31 00:26:28;;;;;;;;;;;333.70;1664.00;;;;;;5086314;28;19911;-67
2021/10/31 00:28:54;;;;;;;;;;;333.70;1664.00;;;;;;5096809;28;19916;-64
2021/10/31 00:31:19;;;;;;;;;;;333.70;1664.00;;;;;;5107310;28;19908;-64
2021/10/31 00:33:45;;;;;;;;;;;333.70;1689.60;;;;;;5091290;28;19915;-66
2021/10/31 00:36:10;;;;;;;;;;;358.40;1664.00;;;;;;5096066;28;19910;-66
2021/10/31 00:38:36;;;;;;;;;;;333.70;1664.00;;;;;;5093522;28;19914;-64
2021/10/31 00:41:02;;;;;;;;;;;333.70;1689.60;;;;;;5106144;28;20348;-68
2021/10/31 00:43:27;;;;;;;;;;;358.40;1664.00;;;;;;5117901;28;19908;-63
2021/10/31 00:45:53;;;;;;;;;;;358.40;1664.00;;;;;;5117770;28;19904;-64
2021/10/31 00:48:18;;;;;;;;;;;358.40;1689.60;;;;;;5117530;28;19922;-64
2021/10/31 00:50:48;;;;;;;;;;;358.40;1689.60;;;;;;5117686;28;20246;-64
2021/10/31 00:53:13;;;;;;;;;;;358.40;1664.00;;;;;;5117208;28;19904;-64
2021/10/31 00:55:40;;;;;;;;;;;358.40;1689.60;;;;;;5117915;28;20360;-64
2021/10/31 00:58:07;;;;;;;;;;;358.40;1664.00;;;;;;5117696;28;19910;-64
2021/10/31 01:00:33;;;;;;;;;;;333.70;1664.00;;;;;;5117391;28;20265;-64
2021/10/31 01:02:58;;;;;;;;;;;358.40;1664.00;;;;;;5117335;28;19916;-64
2021/10/31 01:05:32;;;;;;;;;;;333.70;1664.00;;;;;;5118024;28;19903;-64
2021/10/31 01:08:18;;;;;;;;;;;358.40;1664.00;;;;;;5117261;28;19915;-65
2021/10/31 01:10:56;;;;;;;;;;;358.40;1664.00;;;;;;5117182;28;20032;-64
2021/10/31 01:13:24;;;;;;;;;;;333.70;1664.00;;;;;;5117067;28;19911;-64
2021/10/31 01:16:16;;;;;;;;;;;358.40;1664.00;;;;;;5117075;28;20345;-64
2021/10/31 01:18:42;;;;;;;;;;;358.40;1664.00;;;;;;5014549;28;20005;-64
2021/10/31 01:21:19;;;;;;;;;;;358.40;1664.00;;;;;;5014571;28;20355;-64
2021/10/31 01:23:59;;;;;;;;;;;358.40;1664.00;;;;;;5014628;28;19996;-65
2021/10/31 01:26:47;;;;;;;;;;;333.70;1664.00;;;;;;5014454;28;20346;-64
2021/10/31 01:29:22;;;;;;;;;;;358.40;1664.00;;;;;;5014937;28;19913;-64
2021/10/31 01:31:47;;;;;;;;;;;358.40;1664.00;;;;;;5014217;28;20299;-65
2021/10/31 01:34:21;;;;;;;;;;;358.40;1664.00;;;;;;5014371;28;19905;-64
2021/10/31 01:36:54;;;;;;;;;;;333.70;1664.00;;;;;;5014221;28;19906;-64
2021/10/31 01:39:21;;;;;;;;;;;333.70;1664.00;;;;;;5014402;28;19928;-64
2021/10/31 01:41:49;;;;;;;;;;;333.70;1664.00;;;;;;5014270;28;19906;-64
2021/10/31 01:44:24;;;;;;;;;;;333.70;1664.00;;;;;;5014093;28;20267;-64
2021/10/31 01:46:59;;;;;;;;;;;333.70;1664.00;;;;;;5013866;28;19913;-65
2021/10/31 01:49:28;;;;;;;;;;;333.70;1664.00;;;;;;5014034;28;19905;-64
2021/10/31 01:52:01;;;;;;;;;;;333.70;1664.00;;;;;;5014098;28;19912;-64
2021/10/31 01:54:40;;;;;;;;;;;333.70;1664.00;;;;;;5021657;28;19913;-64
2021/10/31 01:57:08;;;;;;;;;;;333.60;1664.00;;;;;;5116207;28;20257;-64
2021/10/31 01:59:36;;;;;;;;;;;333.60;1664.00;;;;;;5116175;28;19903;-64
2021/10/31 02:02:03;;;;;;;;;;;333.60;1664.00;;;;;;5116178;28;19904;-64
2021/10/31 02:04:31;;;;;;;;;;;333.60;1664.00;;;;;;5114965;28;19908;-64
2021/10/31 02:06:58;;;;;;;;;;;333.60;1664.00;;;;;;5116018;28;19907;-64
2021/10/31 02:09:24;;;;;;;;;;;333.60;1664.00;;;;;;5116139;28;19908;-63
2021/10/31 02:11:51;;;;;;;;;;;333.60;1664.00;;;;;;5116313;28;19912;-64
2021/10/31 02:14:17;;;;;;;;;;;333.60;1664.00;;;;;;5116218;28;19907;-64
2021/10/31 02:16:43;;;;;;;;;;;333.60;1664.00;;;;;;5115996;28;20297;-64
2021/10/31 02:19:15;;;;;;;;;;;333.60;1664.00;;;;;;5115601;28;19910;-64
2021/10/31 02:21:41;;;;;;;;;;;333.50;1664.00;;;;;;5115842;28;19910;-64
2021/10/31 02:24:07;;;;;;;;;;;333.50;1664.00;;;;;;5116037;28;20312;-64
2021/10/31 02:26:36;;;;;;;;;;;333.50;1664.00;;;;;;5116211;28;19904;-64
2021/10/31 02:29:06;;;;;;;;;;;333.50;1664.00;;;;;;5115671;28;19934;-65
2021/10/31 02:31:31;;;;;;;;;;;333.50;1664.00;;;;;;5115458;28;19910;-65
2021/10/31 02:33:57;;;;;;;;;;;333.40;1664.00;;;;;;5115667;28;20283;-64
2021/10/31 02:36:23;;;;;;;;;;;333.40;1689.60;;;;;;5115650;28;19964;-64
2021/10/31 02:38:49;;;;;;;;;;;333.40;1664.00;;;;;;5116357;28;20006;-63
2021/10/31 02:41:14;;;;;;;;;;;333.40;1689.60;;;;;;5115366;28;19911;-64
2021/10/31 02:43:40;;;;;;;;;;;333.40;1689.60;;;;;;5115441;28;19910;-64
2021/10/31 02:46:05;;;;;;;;;;;333.40;1689.60;;;;;;5115516;28;19949;-64
2021/10/31 02:48:31;;;;;;;;;;;333.40;1689.60;;;;;;5114928;28;19922;-63
2021/10/31 02:51:00;;;;;;;;;;;333.40;1664.00;;;;;;5115167;28;19908;-64
2021/10/31 02:53:32;;;;;;;;;;;333.40;1664.00;;;;;;5115124;28;19904;-64
2021/10/31 02:56:18;;;;;;;;;;;333.30;1664.00;;;;;;5115147;28;19903;-64
2021/10/31 02:59:02;;;;;;;;;;;333.30;1689.60;;;;;;5115125;28;19911;-63
2021/10/31 03:01:28;;;;;;;;;;;333.30;1689.60;;;;;;5114903;28;19908;-64
2021/10/31 03:03:55;;;;;;;;;;;333.30;1664.00;;;;;;5115206;28;19956;-65
2021/10/31 03:06:21;;;;;;;;;;;333.30;1689.60;;;;;;5115189;28;19908;-64
2021/10/31 03:08:46;;;;;;;;;;;333.30;1664.00;;;;;;5114841;28;19911;-63
2021/10/31 03:11:12;;;;;;;;;;;333.30;1689.60;;;;;;5115077;28;19995;-64
2021/10/31 03:13:38;;;;;;;;;;;333.20;1689.60;;;;;;5114930;28;20041;-65
2021/10/31 03:16:05;;;;;;;;;;;333.20;1664.00;;;;;;5114366;28;19904;-64
2021/10/31 03:18:30;;;;;;;;;;;333.20;1689.60;;;;;;5114695;28;19907;-63
2021/10/31 03:20:56;;;;;;;;;;;333.20;1689.60;;;;;;5114674;28;19911;-63
2021/10/31 03:23:22;;;;;;;;;;;333.20;1689.60;;;;;;5114289;28;19957;-64
2021/10/31 03:25:47;;;;;;;;;;;333.20;1689.60;;;;;;5114843;28;19912;-64
2021/10/31 03:28:13;;;;;;;;;;;333.10;1689.60;;;;;;5114914;28;19911;-64
2021/10/31 03:30:39;;;;;;;;;;;333.10;1689.60;;;;;;5114578;28;19904;-64
2021/10/31 03:33:04;;;;;;;;;;;333.10;1689.60;;;;;;5114462;28;19972;-64
2021/10/31 03:35:30;;;;;;;;;;;333.10;1689.60;;;;;;5114615;28;19987;-64
2021/10/31 03:37:55;;;;;;;;;;;333.00;1689.60;;;;;;5096066;28;19903;-63
2021/10/31 03:40:21;;;;;;;;;;;333.00;1664.00;;;;;;5114866;28;19908;-63
2021/10/31 03:42:47;;;;;;;;;;;333.00;1689.60;;;;;;5114524;28;19912;-64
2021/10/31 03:45:13;;;;;;;;;;;333.00;1689.60;;;;;;5114469;28;19904;-64
2021/10/31 03:47:57;;;;;;;;;;;333.00;1689.60;;;;;;5114219;28;20019;-64
2021/10/31 03:50:23;;;;;;;;;;;333.00;1689.60;;;;;;5114368;28;19994;-64
2021/10/31 03:52:49;;;;;;;;;;;333.00;1689.60;;;;;;5114362;28;19983;-64
2021/10/31 03:55:15;;;;;;;;;;;333.00;1689.60;;;;;;5114615;28;19904;-64
2021/10/31 03:57:41;;;;;;;;;;;332.90;1689.60;;;;;;5114533;28;19949;-63
2021/10/31 04:00:08;;;;;;;;;;;332.90;1689.60;;;;;;5114329;28;20057;-64
2021/10/31 04:02:34;;;;;;;;;;;332.90;1689.60;;;;;;5114313;28;20364;-63
2021/10/31 04:04:59;;;;;;;;;;;332.90;1689.60;;;;;;5114529;28;19903;-63
2021/10/31 04:07:25;;;;;;;;;;;332.90;1689.60;;;;;;5114211;28;20314;-64
2021/10/31 04:09:50;;;;;;;;;;;332.90;1689.60;;;;;;5114634;28;19939;-64
2021/10/31 04:12:16;;;;;;;;;;;332.80;1689.60;;;;;;5114445;28;19904;-64
2021/10/31 04:14:42;;;;;;;;;;;332.80;1664.00;;;;;;5114451;28;20401;-64
2021/10/31 04:17:07;;;;;;;;;;;332.80;1689.60;;;;;;5114244;28;19908;-64
2021/10/31 04:19:33;;;;;;;;;;;332.80;1689.60;;;;;;5114228;28;19994;-63
2021/10/31 04:21:58;;;;;;;;;;;332.80;1664.00;;;;;;5114306;28;19903;-64
2021/10/31 04:24:24;;;;;;;;;;;332.80;1689.60;;;;;;5114270;28;19933;-64
2021/10/31 04:26:50;;;;;;;;;;;308.10;1664.00;;;;;;5115251;28;19911;-63
2021/10/31 04:29:16;;;;;;;;;;;308.10;1664.00;;;;;;5118042;28;20255;-63
2021/10/31 04:31:41;;;;;;;;;;;308.10;1664.00;;;;;;5117708;28;20033;-63
2021/10/31 04:34:07;;;;;;;;;;;308.10;1664.00;;;;;;5118157;28;19908;-63
2021/10/31 04:36:33;;;;;;;;;;;308.10;1664.00;;;;;;5118066;28;19943;-64
2021/10/31 04:38:58;;;;;;;;;;;308.00;1664.00;;;;;;5117780;28;20051;-64
2021/10/31 04:41:26;;;;;;;;;;;308.00;1664.00;;;;;;5118062;28;19911;-64
2021/10/31 04:43:52;;;;;;;;;;;308.00;1664.00;;;;;;5117825;28;19904;-64
2021/10/31 04:46:17;;;;;;;;;;;308.00;1664.00;;;;;;5117422;28;20352;-63
2021/10/31 04:48:43;;;;;;;;;;;308.00;1664.00;;;;;;5117618;28;19911;-63
2021/10/31 04:51:09;;;;;;;;;;;308.00;1664.00;;;;;;5098874;28;19904;-64
2021/10/31 04:53:34;;;;;;;;;;;307.90;1664.00;;;;;;5117693;28;19998;-63
2021/10/31 04:56:00;;;;;;;;;;;307.90;1664.00;;;;;;5117537;28;20246;-64
2021/10/31 04:58:26;;;;;;;;;;;307.90;1664.00;;;;;;5117796;28;20006;-64
2021/10/31 05:00:52;;;;;;;;;;;307.90;1664.00;;;;;;5117307;28;20266;-63
2021/10/31 05:03:17;;;;;;;;;;;307.90;1664.00;;;;;;5117329;28;19908;-64
2021/10/31 05:05:43;;;;;;;;;;;307.90;1664.00;;;;;;5117383;28;19908;-63
2021/10/31 05:08:08;;;;;;;;;;;307.90;1664.00;;;;;;5117202;28;19911;-63
2021/10/31 05:10:34;;;;;;;;;;;307.90;1664.00;;;;;;5117197;28;19911;-63
2021/10/31 05:13:00;;;;;;;;;;;307.90;1664.00;;;;;;5117343;28;19972;-63
2021/10/31 05:15:25;;;;;;;;;;;307.80;1664.00;;;;;;5098862;28;19903;-64
2021/10/31 05:17:51;;;;;;;;;;;307.90;1664.00;;;;;;5117004;28;19904;-64
2021/10/31 05:20:17;;;;;;;;;;;307.80;1664.00;;;;;;5117209;28;19915;-63
2021/10/31 05:22:43;;;;;;;;;;;307.80;1689.60;;;;;;5117183;28;19911;-63
2021/10/31 05:25:09;;;;;;;;;;;307.70;1689.60;;;;;;5117232;28;20273;-63
2021/10/31 05:27:35;;;;;;;;;;;307.70;1664.00;;;;;;5116902;28;20246;-64
2021/10/31 05:30:01;;;;;;;;;;;307.70;1689.60;;;;;;5097590;28;19904;-63
2021/10/31 05:32:35;;;;;;;;;;;307.70;1664.00;;;;;;5116913;28;19904;-65
2021/10/31 05:35:01;;;;;;;;;;;307.70;1689.60;;;;;;5116422;28;19904;-63
2021/10/31 05:37:42;;;;;;;;;;;307.70;1664.00;;;;;;5110121;28;19907;-63
2021/10/31 05:40:09;;;;;;;;;;;307.70;1664.00;;;;;;5116785;28;19915;-63
2021/10/31 05:42:35;;;;;;;;;;;307.70;1689.60;;;;;;5092895;28;20277;-62
2021/10/31 05:45:00;;;;;;;;;;;307.70;1664.00;;;;;;5096580;28;19932;-63
2021/10/31 05:47:26;;;;;;;;;;;307.80;1664.00;;;;;;5095976;28;20010;-63
2021/10/31 05:49:52;;;;;;;;;;;307.70;1664.00;;;;;;5093480;28;20030;-63
2021/10/31 05:52:17;;;;;;;;;;;307.70;1689.60;;;;;;5097321;28;19952;-64
2021/10/31 05:54:43;;;;;;;;;;;307.70;1689.60;;;;;;5095523;28;19963;-63
2021/10/31 05:57:09;;;;;;;;;;;307.70;1689.60;;;;;;5094162;28;19904;-63
2021/10/31 05:59:35;;;;;;;;;;;307.70;1689.60;;;;;;5097404;28;20315;-64
2021/10/31 06:02:00;;;;;;;;;;;307.70;1689.60;;;;;;5092534;28;19950;-64
2021/10/31 06:04:28;;;;;;;;;;;307.70;1689.60;;;;;;5097013;28;19935;-62
2021/10/31 06:06:53;;;;;;;;;;;307.70;1689.60;;;;;;5093045;28;19904;-63
2021/10/31 06:09:19;;;;;;;;;;;307.70;1689.60;;;;;;5095679;28;19912;-63
2021/10/31 06:11:44;;;;;;;;;;;307.70;1715.20;;;;;;5096208;28;20387;-63
2021/10/31 06:14:13;;;;;;;;;;;307.70;1689.60;;;;;;5093136;28;19904;-64
2021/10/31 06:16:38;;;;;;;;;;;307.70;1689.60;;;;;;5094144;28;19909;-63
2021/10/31 06:19:07;;;;;;;;;;;307.70;1715.20;;;;;;5095110;28;19994;-62
2021/10/31 06:21:32;;;;;;;;;;;307.70;1689.60;;;;;;5097121;28;19904;-62
2021/10/31 06:23:58;;;;;;;;;;;307.70;1715.20;;;;;;5093788;28;19912;-63
2021/10/31 06:26:24;;;;;;;;;;;307.70;1689.60;;;;;;5094566;28;19903;-62
2021/10/31 06:28:49;;;;;;;;;;;307.80;1689.60;;;;;;5096696;28;19913;-62
2021/10/31 06:31:15;;;;;;;;;;;307.70;1689.60;;;;;;5092730;28;19904;-63
2021/10/31 06:33:41;;;;;;;;;;;307.80;1689.60;;;;;;5095524;28;19904;-62
2021/10/31 06:36:06;;;;;;;;;;;307.80;1715.20;;;;;;5095954;28;20291;-63
2021/10/31 06:38:32;;;;;;;;;;;307.80;1689.60;;;;;;5092780;28;19904;-62
2021/10/31 06:40:58;;;;;;;;;;;307.80;1715.20;;;;;;5096070;28;20330;-63
2021/10/31 06:43:23;;;;;;;;;;;307.90;1715.20;;;;;;5094962;28;19983;-62
2021/10/31 06:45:49;;;;;;;;;;;307.90;1715.20;;;;;;5092850;28;19941;-62
2021/10/31 06:48:15;;;;;;;;;;;307.80;1715.20;;;;;;5072886;28;19920;-62
2021/10/31 06:50:40;;;;;;;;;;;307.90;1715.20;;;;;;5095520;28;19904;-62
2021/10/31 06:53:06;;;;;;;;;;;307.90;1715.20;;;;;;5093660;28;19930;-62
2021/10/31 06:55:32;;;;;;;;;;;307.90;1715.20;;;;;;5091086;28;19968;-63
2021/10/31 06:57:58;;;;;;;;;;;307.90;1715.20;;;;;;5096445;28;19979;-62
2021/10/31 07:00:24;;;;;;;;;;;308.00;1715.20;;;;;;5093553;28;19961;-63
2021/10/31 07:02:49;;;;;;;;;;;308.00;1715.20;;;;;;5093750;28;19927;-63
2021/10/31 07:05:15;;;;;;;;;;;308.10;1715.20;;;;;;5096286;28;20357;-62
2021/10/31 07:07:40;;;;;;;;;;;308.10;1740.80;;;;;;5098889;28;19923;-62
2021/10/31 07:10:06;;;;;;;;;;;308.10;1715.20;;;;;;5091919;28;20360;-62
2021/10/31 07:12:32;;;;;;;;;;;332.80;1740.80;;;;;;5094750;28;19943;-64
2021/10/31 07:14:59;;;;;;;;;;;332.80;1740.80;;;;;;5094161;28;19918;-62
2021/10/31 07:17:24;;;;;;;;;;;332.80;1740.80;;;;;;5091106;28;19923;-63
2021/10/31 07:19:50;;;;;;;;;;;332.90;1740.80;;;;;;5095691;28;20275;-63
2021/10/31 07:22:18;;;;;;;;;;;333.00;1740.80;;;;;;5093674;28;20016;-62
2021/10/31 07:24:45;;;;;;;;;;;333.00;1740.80;;;;;;5093178;28;20394;-64
2021/10/31 07:27:11;;;;;;;;;;;333.10;1740.80;;;;;;5092373;28;19995;-62
2021/10/31 07:29:39;;;;;;;;;;;333.20;1740.80;;;;;;5095968;28;20000;-63
2021/10/31 07:32:04;;;;;;;;;;;333.20;1715.20;;;;;;5114688;28;19911;-63
2021/10/31 07:34:30;;;;;;;;;;;333.30;1715.20;;;;;;5114419;28;20353;-64
2021/10/31 07:36:56;;;;;;;;;;;333.30;1715.20;;;;;;5113822;28;20294;-64
2021/10/31 07:39:21;;;;;;;;;;;333.40;1715.20;;;;;;5114546;28;19947;-63
2021/10/31 07:41:47;;;;;;;;;;;333.50;1689.60;;;;;;5114719;28;19912;-64
2021/10/31 07:44:12;;;;;;;;;;;333.50;1689.60;;;;;;5114737;28;20357;-64
2021/10/31 07:46:38;;;;;;;;;;;333.60;1664.00;;;;;;5114277;28;19924;-63
2021/10/31 07:49:04;;;;;;;;;;;333.70;1664.00;;;;;;5115016;28;19916;-64
2021/10/31 07:51:30;;;;;;;;;;;333.70;1664.00;;;;;;5114724;28;19958;-64
2021/10/31 07:53:55;;;;;;;;;;;358.40;1664.00;;;;;;5114567;28;19911;-64
2021/10/31 07:56:22;;;;;;;;;;;358.50;1664.00;;;;;;5114550;28;19903;-63
2021/10/31 07:58:54;;;;;;;;;;;358.50;1638.40;;;;;;5111281;28;20361;-63
2021/10/31 08:01:20;;;;;;;;;;;358.60;1612.80;;;;;;5114034;28;19904;-63
2021/10/31 08:03:46;;;;;;;;;;;358.70;1612.80;;;;;;5118090;28;19903;-63
2021/10/31 08:06:12;;;;;;;;;;;358.80;1612.80;;;;;;5117474;28;20393;-63
2021/10/31 08:08:37;;;;;;;;;;;358.90;1612.80;;;;;;5102378;28;19920;-63
2021/10/31 08:11:03;;;;;;;;;;;359.00;1587.20;;;;;;5097274;28;19912;-63
2021/10/31 08:13:29;;;;;;;;;;;359.10;1561.60;;;;;;5097000;28;19915;-63
2021/10/31 08:15:55;;;;;;;;;;;359.20;1561.60;;;;;;5096437;28;19904;-63
2021/10/31 08:18:21;;;;;;;;;;;359.30;1561.60;;;;;;5097008;28;19904;-63
2021/10/31 08:20:47;;;;;;;;;;;384.00;1536.00;;;;;;5097076;28;19904;-64
2021/10/31 08:23:16;;;;;;;;;;;384.10;1536.00;;;;;;5096690;28;19910;-63
2021/10/31 08:25:45;;;;;;;;;;;384.20;1510.40;;;;;;5096939;28;19911;-63
2021/10/31 08:28:11;;;;;;;;;;;384.30;1536.00;;;;;;5096763;28;19965;-63
2021/10/31 08:30:39;;;;;;;;;;;384.40;1484.80;;;;;;5096430;28;20337;-63
2021/10/31 08:33:18;;;;;;;;;;;384.50;1484.80;;;;;;5096972;28;19904;-63
2021/10/31 08:35:44;;;;;;;;;;;384.70;1459.20;;;;;;5096816;28;19904;-64
2021/10/31 08:38:10;;;;;;;;;;;384.80;1459.20;;;;;;5096743;28;19904;-64
2021/10/31 08:40:37;;;;;;;;;;;384.80;1433.60;;;;;;5096494;28;20300;-64
2021/10/31 08:43:02;;;;;;;;;;;409.60;1433.60;;;;;;5096729;28;19911;-64
2021/10/31 08:45:28;;;;;;;;;;;409.60;1433.60;;;;;;5108483;28;19912;-63
2021/10/31 08:47:54;;;;;;;;;;;409.70;1433.60;;;;;;5076132;28;19923;-63
2021/10/31 08:50:19;;;;;;;;;;;409.80;1433.60;;;;;;5095965;28;20007;-63
2021/10/31 08:52:45;;;;;;;;;;;409.90;1433.60;;;;;;5095464;28;19908;-63
2021/10/31 08:55:11;;;;;;;;;;;410.00;1433.60;;;;;;5077915;28;19907;-66
2021/10/31 08:57:36;;;;;;;;;;;410.10;1433.60;;;;;;5096245;28;19903;-63
2021/10/31 09:00:03;;;;;;;;;;;410.20;1408.00;;;;;;5095843;28;19994;-63
2021/10/31 09:02:28;;;;;;;;;;;410.30;1408.00;;;;;;5096145;28;20346;-63
2021/10/31 09:04:55;;;;;;;;;;;410.30;1382.40;;;;;;5096076;28;19911;-63
2021/10/31 09:07:21;;;;;;;;;;;410.40;1382.40;;;;;;5095569;28;19965;-62
2021/10/31 09:09:46;;;;;;;;;;;410.50;1356.80;;;;;;5096188;28;20009;-62
2021/10/31 09:12:12;;;;;;;;;;;435.20;1356.80;;;;;;5095558;28;19904;-63
2021/10/31 09:14:38;;;;;;;;;;;435.20;1356.80;;;;;;5095637;28;19907;-63
2021/10/31 09:17:04;;;;;;;;;;;435.30;1356.80;;;;;;5095678;28;19904;-63
2021/10/31 09:19:29;;;;;;;;;;;435.40;1356.80;;;;;;5095736;28;19904;-63
2021/10/31 09:21:55;;;;;;;;;;;435.40;1331.20;;;;;;5095603;28;19904;-63
2021/10/31 09:24:20;;;;;;;;;;;435.50;1305.60;;;;;;5095895;28;19959;-63
2021/10/31 09:26:46;;;;;;;;;;;435.50;1305.60;;;;;;5095908;28;19904;-62
2021/10/31 09:29:12;;;;;;;;;;;435.60;1305.60;;;;;;5095175;28;19919;-63
2021/10/31 09:31:38;;;;;;;;;;;435.70;1305.60;;;;;;5095808;28;19908;-63
2021/10/31 09:34:04;;;;;;;;;;;435.70;1305.60;;;;;;5095537;28;19904;-63
2021/10/31 09:36:30;;;;;;;;;;;435.70;1280.00;;;;;;5095346;28;19926;-62
2021/10/31 09:38:56;;;;;;;;;;;435.80;1280.00;;;;;;5095142;28;19994;-63
2021/10/31 09:41:24;;;;;;;;;;;435.90;1280.00;;;;;;5095231;28;19911;-63
2021/10/31 09:43:53;;;;;;;;;;;435.90;1280.00;;;;;;5094633;28;19926;-64
2021/10/31 09:46:19;;;;;;;;;;;436.00;1280.00;;;;;;5096998;28;19915;-64
2021/10/31 09:48:45;;;;;;;;;;;436.00;1280.00;;;;;;5115482;28;19911;-66
2021/10/31 09:51:10;;;;;;;;;;;436.10;1254.40;;;;;;5115379;28;19903;-64
2021/10/31 09:53:36;;;;;;;;;;;460.80;1254.40;;;;;;5115681;28;20341;-65
2021/10/31 09:56:02;;;;;;;;;;;460.80;1254.40;;;;;;5115571;28;20345;-64
2021/10/31 09:58:36;;;;;;;;;;;460.80;1254.40;;;;;;5114950;28;19915;-67
2021/10/31 10:01:07;;;;;;;;;;;460.90;1254.40;;;;;;5115516;28;19934;-65
2021/10/31 10:03:36;;;;;;;;;;;460.90;1254.40;;;;;;5109096;28;20376;-65
2021/10/31 10:06:12;;;;;;;;;;;460.90;1254.40;;;;;;5115044;28;19939;-66
2021/10/31 10:08:38;;;;;;;;;;;460.90;1254.40;;;;;;5115309;28;20424;-64
2021/10/31 10:11:15;;;;;;;;;;;461.00;1280.00;;;;;;5115648;28;20000;-66
2021/10/31 10:13:41;;;;;;;;;;;461.10;1254.40;;;;;;5114747;28;19910;-64
2021/10/31 10:16:19;;;;;;;;;;;461.10;1254.40;;;;;;5115022;28;19903;-67
2021/10/31 10:18:44;;;;;;;;;;;461.20;1254.40;;;;;;5115108;28;19911;-65
2021/10/31 10:21:21;;;;;;;;;;;461.20;1228.80;;;;;;5114989;28;19904;-64
2021/10/31 10:23:51;;;;;;;;;;;461.30;1228.80;;;;;;5084730;28;19904;-66
2021/10/31 10:26:24;;;;;;;;;;;461.30;1254.40;;;;;;5094388;28;19954;-64
2021/10/31 10:28:49;;;;;;;;;;;461.50;1228.80;;;;;;5094090;28;19912;-66
2021/10/31 10:31:20;;;;;;;;;;;461.50;1228.80;;;;;;5094567;28;19904;-67
2021/10/31 10:33:46;;;;;;;;;;;461.50;1228.80;;;;;;5094307;28;19904;-67
2021/10/31 10:36:14;;;;;;;;;;;461.50;1203.20;;;;;;5094207;28;19910;-67
2021/10/31 10:38:39;;;;;;;;;;;461.60;1228.80;;;;;;5094322;28;19957;-66
2021/10/31 10:41:05;;;;;;;;;;;461.60;1203.20;;;;;;5094544;28;19904;-67
2021/10/31 10:43:31;;;;;;;;;;;461.60;1228.80;;;;;;5093861;28;20262;-66
2021/10/31 10:46:14;;;;;;;;;;;486.40;1203.20;;;;;;5094416;28;19948;-66
2021/10/31 10:48:56;;;;;;;;;;;486.40;1203.20;;;;;;5094155;28;19923;-67
2021/10/31 10:51:21;;;;;;;;;;;486.40;1177.60;;;;;;5093745;28;19908;-67
2021/10/31 10:53:47;;;;;;;;;;;486.40;1177.60;;;;;;5094731;28;20319;-66
2021/10/31 10:56:12;;;;;;;;;;;486.40;1177.60;;;;;;5094958;28;19904;-67
2021/10/31 10:58:49;;;;;;;;;;;486.40;1177.60;;;;;;5094962;28;20451;-67
2021/10/31 11:01:17;;;;;;;;;;;486.50;1177.60;;;;;;5094761;28;19904;-67
2021/10/31 11:03:43;;;;;;;;;;;486.50;1152.00;;;;;;5094602;28;19904;-67
2021/10/31 11:06:08;;;;;;;;;;;486.50;1152.00;;;;;;5094755;28;19912;-66
2021/10/31 11:08:34;;;;;;;;;;;486.50;1152.00;;;;;;5095315;28;20353;-67
2021/10/31 11:11:04;;;;;;;;;;;486.60;1177.60;;;;;;5094757;28;20013;-67
2021/10/31 11:13:30;;;;;;;;;;;486.60;1152.00;;;;;;5094690;28;19908;-67
2021/10/31 11:15:59;;;;;;;;;;;486.60;1152.00;;;;;;5094370;28;19911;-66
2021/10/31 11:18:25;;;;;;;;;;;486.60;1152.00;;;;;;5094200;28;19904;-67
2021/10/31 11:20:50;;;;;;;;;;;486.70;1152.00;;;;;;5094637;28;19950;-67
2021/10/31 11:23:20;;;;;;;;;;;486.70;1152.00;;;;;;5095026;28;20385;-66
2021/10/31 11:25:46;;;;;;;;;;;486.70;1152.00;;;;;;5094474;28;20394;-66
2021/10/31 11:28:13;;;;;;;;;;;486.70;1152.00;;;;;;5094379;28;20312;-66
2021/10/31 11:30:39;;;;;;;;;;;486.80;1152.00;;;;;;5094117;28;19904;-66
2021/10/31 11:33:06;;;;;;;;;;;486.80;1126.40;;;;;;5094363;28;19959;-67
2021/10/31 11:35:32;;;;;;;;;;;486.80;1152.00;;;;;;5094047;28;19911;-67
2021/10/31 11:37:59;;;;;;;;;;;486.80;1126.40;;;;;;5094352;28;20019;-67
2021/10/31 11:40:35;;;;;;;;;;;486.80;1152.00;;;;;;5094184;28;19998;-66
2021/10/31 11:43:21;;;;;;;;;;;486.90;1126.40;;;;;;5094232;28;19903;-67
2021/10/31 11:45:48;;;;;;;;;;;486.90;1152.00;;;;;;5093616;28;19904;-66
2021/10/31 11:48:14;;;;;;;;;;;486.90;1126.40;;;;;;5094027;28;19923;-66
2021/10/31 11:50:41;;;;;;;;;;;487.00;1126.40;;;;;;5096483;28;19915;-65
2021/10/31 11:53:18;;;;;;;;;;;487.00;1126.40;;;;;;5095486;28;19947;-65
2021/10/31 11:55:50;;;;;;;;;;;487.00;1126.40;;;;;;5094025;28;19904;-66
2021/10/31 11:58:20;;;;;;;;;;;487.10;1126.40;;;;;;5091982;28;19997;-66
2021/10/31 12:00:49;;;;;;;;;;;487.10;1126.40;;;;;;5059616;28;19915;-65
2021/10/31 12:03:35;;;;;;;;;;;487.10;1152.00;;;;;;5113732;28;19957;-65
2021/10/31 12:06:20;;;;;;;;;;;487.10;1100.80;;;;;;5113557;28;19912;-66
2021/10/31 12:08:46;;;;;;;;;;;487.10;1100.80;;;;;;5114214;28;20057;-66
2021/10/31 12:11:12;;;;;;;;;;;487.10;1100.80;;;;;;5114175;28;19943;-66
2021/10/31 12:13:43;;;;;;;;;;;487.10;1126.40;;;;;;5114246;28;19907;-66
2021/10/31 12:16:13;;;;;;;;;;;487.10;1100.80;;;;;;5114380;28;20250;-66
2021/10/31 12:18:52;;;;;;;;;;;487.10;1126.40;;;;;;5114175;28;19908;-66
2021/10/31 12:21:21;;;;;;;;;;;487.10;1126.40;;;;;;5114291;28;20419;-66
2021/10/31 12:23:54;;;;;;;;;;;487.10;1100.80;;;;;;5114525;28;19911;-66
2021/10/31 12:26:22;;;;;;;;;;;487.10;1100.80;;;;;;5114455;28;19904;-66
2021/10/31 12:28:47;;;;;;;;;;;487.20;1100.80;;;;;;5114345;28;19915;-67
2021/10/31 12:31:23;;;;;;;;;;;487.10;1100.80;;;;;;5114220;28;19950;-66
2021/10/31 12:34:05;;;;;;;;;;;487.10;1100.80;;;;;;5114171;28;19903;-67
2021/10/31 12:36:31;;;;;;;;;;;487.10;1100.80;;;;;;5114205;28;19903;-66
2021/10/31 12:38:58;;;;;;;;;;;487.10;1075.20;;;;;;5114196;28;20246;-65
2021/10/31 12:41:24;;;;;;;;;;;487.10;1075.20;;;;;;5113891;28;20398;-67
2021/10/31 12:43:51;;;;;;;;;;;487.10;1075.20;;;;;;5114184;28;19904;-66
2021/10/31 12:46:28;;;;;;;;;;;487.10;1075.20;;;;;;5113720;28;19911;-66
2021/10/31 12:48:57;;;;;;;;;;;487.10;1075.20;;;;;;5116657;28;19926;-66
2021/10/31 12:51:47;;;;;;;;;;;487.10;1075.20;;;;;;5117807;28;19922;-67
2021/10/31 12:54:23;;;;;;;;;;;487.10;1075.20;;;;;;5116860;28;20011;-65
2021/10/31 12:56:49;;;;;;;;;;;487.10;1075.20;;;;;;5117559;28;19911;-65
2021/10/31 12:59:17;;;;;;;;;;;487.10;1075.20;;;;;;5114001;28;19904;-67
2021/10/31 13:01:43;;;;;;;;;;;487.10;1075.20;;;;;;5116309;28;19910;-67
2021/10/31 13:04:09;;;;;;;;;;;487.10;1049.60;;;;;;5115269;28;19953;-65
2021/10/31 13:06:51;;;;;;;;;;;487.10;1049.60;;;;;;5095618;28;19934;-65
2021/10/31 13:09:16;;;;;;;;;;;487.10;1049.60;;;;;;5096015;28;19912;-64
2021/10/31 13:11:43;;;;;;;;;;;487.10;1075.20;;;;;;5095568;28;19904;-65
2021/10/31 13:14:28;;;;;;;;;;;487.10;1049.60;;;;;;5094583;28;20345;-66
2021/10/31 13:16:57;;;;;;;;;;;487.10;1049.60;;;;;;5095432;28;19904;-66
2021/10/31 13:19:24;;;;;;;;;;;487.00;1049.60;;;;;;5095330;28;19904;-65
2021/10/31 13:21:56;;;;;;;;;;;487.00;1049.60;;;;;;5095351;28;19949;-64
2021/10/31 13:24:22;;;;;;;;;;;487.00;1049.60;;;;;;5095680;28;19907;-64
2021/10/31 13:26:47;;;;;;;;;;;487.00;1049.60;;;;;;5094891;28;19919;-65
2021/10/31 13:29:13;;;;;;;;;;;487.00;1049.60;;;;;;5094997;28;20376;-64
2021/10/31 13:31:39;;;;;;;;;;;486.90;1049.60;;;;;;5095039;28;19904;-64
2021/10/31 13:34:07;;;;;;;;;;;487.00;1024.00;;;;;;5095018;28;20315;-66
2021/10/31 13:36:37;;;;;;;;;;;487.00;1024.00;;;;;;5095164;28;19904;-67
2021/10/31 13:39:05;;;;;;;;;;;486.90;1049.60;;;;;;5095484;28;19987;-65
2021/10/31 13:41:34;;;;;;;;;;;486.90;1024.00;;;;;;5095500;28;20013;-65
2021/10/31 13:44:01;;;;;;;;;;;486.90;1024.00;;;;;;5094632;28;19957;-66
2021/10/31 13:46:31;;;;;;;;;;;486.90;1024.00;;;;;;5094785;28;19943;-65